sensor_id;sensor_type;location;lat;lon;timestamp;temperature;humidity
19552;DHT22;9921;47.186;9.778;2023-02-15T00:01:07;1.30;99.90
19552;DHT22;9921;47.186;9.778;2023-02-15T00:03:34;1.30;99.90
19552;DHT22;9921;47.186;9.778;2023-02-15T00:06:01;1.20;99.90
19552;DHT22;9921;47.186;9.778;2023-02-15T00:08:28;1.10;99.90
19552;DHT22;9921;47.186;9.778;2023-02-15T00:11:03;1.10;99.90
19552;DHT22;9921;47.186;9.778;2023-02-15T00:13:31;1.10;99.90
19552;DHT22;9921;47.186;9.778;2023-02-15T00:16:01;1.10;99.90
19552;DHT22;9921;47.186;9.778;2023-02-15T00:18:29;1.10;99.90
19552;DHT22;9921;47.186;9.778;2023-02-15T00:20:56;1.10;99.90
19552;DHT22;9921;47.186;9.778;2023-02-15T00:23:23;1.10;99.90
19552;DHT22;9921;47.186;9.778;2023-02-15T00:25:50;0.90;99.90
19552;DHT22;9921;47.186;9.778;2023-02-15T00:28:17;0.80;99.90
19552;DHT22;9921;47.186;9.778;2023-02-15T00:30:44;0.70;99.90
19552;DHT22;9921;47.186;9.778;2023-02-15T00:33:11;0.70;99.90
19552;DHT22;9921;47.186;9.778;2023-02-15T00:35:39;0.70;99.90
19552;DHT22;9921;47.186;9.778;2023-02-15T00:38:06;0.60;99.90
19552;DHT22;9921;47.186;9.778;2023-02-15T00:40:33;0.70;99.90
19552;DHT22;9921;47.186;9.778;2023-02-15T00:42:59;0.70;99.90
19552;DHT22;9921;47.186;9.778;2023-02-15T00:45:26;0.80;99.90
19552;DHT22;9921;47.186;9.778;2023-02-15T00:47:53;0.70;99.90
19552;DHT22;9921;47.186;9.778;2023-02-15T00:50:20;0.40;99.90
19552;DHT22;9921;47.186;9.778;2023-02-15T00:52:48;0.40;99.90
19552;DHT22;9921;47.186;9.778;2023-02-15T00:55:15;0.50;99.90
19552;DHT22;9921;47.186;9.778;2023-02-15T00:57:42;0.60;99.90
19552;DHT22;9921;47.186;9.778;2023-02-15T01:00:09;0.50;99.90
19552;DHT22;9921;47.186;9.778;2023-02-15T01:02:36;0.50;99.90
19552;DHT22;9921;47.186;9.778;2023-02-15T01:05:04;0.40;99.90
19552;DHT22;9921;47.186;9.778;2023-02-15T01:07:31;0.40;99.90
19552;DHT22;9921;47.186;9.778;2023-02-15T01:09:59;0.50;99.90
19552;DHT22;9921;47.186;9.778;2023-02-15T01:12:26;0.50;99.90
19552;DHT22;9921;47.186;9.778;2023-02-15T01:14:53;0.50;99.90
19552;DHT22;9921;47.186;9.778;2023-02-15T01:17:20;0.50;99.90
19552;DHT22;9921;47.186;9.778;2023-02-15T01:19:46;0.50;99.90
19552;DHT22;9921;47.186;9.778;2023-02-15T01:22:13;0.50;99.90
19552;DHT22;9921;47.186;9.778;2023-02-15T01:24:40;0.50;99.90
19552;DHT22;9921;47.186;9.778;2023-02-15T01:27:09;0.50;99.90
19552;DHT22;9921;47.186;9.778;2023-02-15T01:29:36;0.60;99.90
19552;DHT22;9921;47.186;9.778;2023-02-15T01:32:03;0.60;99.90
19552;DHT22;9921;47.186;9.778;2023-02-15T01:34:30;0.60;99.90
19552;DHT22;9921;47.186;9.778;2023-02-15T01:36:57;0.60;99.90
19552;DHT22;9921;47.186;9.778;2023-02-15T01:39:24;0.60;99.90
19552;DHT22;9921;47.186;9.778;2023-02-15T01:41:51;0.60;99.90
19552;DHT22;9921;47.186;9.778;2023-02-15T01:44:56;0.40;99.90
19552;DHT22;9921;47.186;9.778;2023-02-15T01:47:34;0.40;99.90
19552;DHT22;9921;47.186;9.778;2023-02-15T01:50:08;0.30;99.90
19552;DHT22;9921;47.186;9.778;2023-02-15T01:52:37;0.30;99.90
19552;DHT22;9921;47.186;9.778;2023-02-15T01:55:06;0.30;99.90
19552;DHT22;9921;47.186;9.778;2023-02-15T01:57:35;0.30;99.90
19552;DHT22;9921;47.186;9.778;2023-02-15T02:00:05;0.40;99.90
19552;DHT22;9921;47.186;9.778;2023-02-15T02:02:32;0.40;99.90
19552;DHT22;9921;47.186;9.778;2023-02-15T02:05:01;0.40;99.90
19552;DHT22;9921;47.186;9.778;2023-02-15T02:07:34;0.40;99.90
19552;DHT22;9921;47.186;9.778;2023-02-15T02:10:03;0.40;99.90
19552;DHT22;9921;47.186;9.778;2023-02-15T02:12:31;0.40;99.90
19552;DHT22;9921;47.186;9.778;2023-02-15T02:14:58;0.40;99.90
19552;DHT22;9921;47.186;9.778;2023-02-15T02:17:37;0.40;99.90
19552;DHT22;9921;47.186;9.778;2023-02-15T02:20:23;0.40;99.90
19552;DHT22;9921;47.186;9.778;2023-02-15T02:23:16;0.40;99.90
19552;DHT22;9921;47.186;9.778;2023-02-15T02:32:09;0.30;99.90
19552;DHT22;9921;47.186;9.778;2023-02-15T02:34:44;0.30;99.90
19552;DHT22;9921;47.186;9.778;2023-02-15T02:37:20;0.30;99.90
19552;DHT22;9921;47.186;9.778;2023-02-15T02:39:51;0.30;99.90
19552;DHT22;9921;47.186;9.778;2023-02-15T02:42:28;0.20;99.90
19552;DHT22;9921;47.186;9.778;2023-02-15T02:45:03;0.10;99.90
19552;DHT22;9921;47.186;9.778;2023-02-15T02:47:34;0.10;99.90
19552;DHT22;9921;47.186;9.778;2023-02-15T02:50:11;0.00;99.90
19552;DHT22;9921;47.186;9.778;2023-02-15T02:52:40;0.10;99.90
19552;DHT22;9921;47.186;9.778;2023-02-15T02:55:11;0.10;99.90
19552;DHT22;9921;47.186;9.778;2023-02-15T02:57:43;0.10;99.90
19552;DHT22;9921;47.186;9.778;2023-02-15T03:00:14;0.10;99.90
19552;DHT22;9921;47.186;9.778;2023-02-15T03:02:45;0.10;99.90
19552;DHT22;9921;47.186;9.778;2023-02-15T03:05:18;0.10;99.90
19552;DHT22;9921;47.186;9.778;2023-02-15T03:07:49;0.10;99.90
19552;DHT22;9921;47.186;9.778;2023-02-15T03:10:20;0.10;99.90
19552;DHT22;9921;47.186;9.778;2023-02-15T03:12:48;0.10;99.90
19552;DHT22;9921;47.186;9.778;2023-02-15T03:15:19;0.10;99.90
19552;DHT22;9921;47.186;9.778;2023-02-15T03:17:49;0.00;99.90
19552;DHT22;9921;47.186;9.778;2023-02-15T03:20:23;0.00;99.90
19552;DHT22;9921;47.186;9.778;2023-02-15T03:22:54;0.10;99.90
19552;DHT22;9921;47.186;9.778;2023-02-15T03:25:26;0.00;99.90
19552;DHT22;9921;47.186;9.778;2023-02-15T03:27:55;-0.10;99.90
19552;DHT22;9921;47.186;9.778;2023-02-15T03:30:26;-0.10;99.90
19552;DHT22;9921;47.186;9.778;2023-02-15T03:32:57;-0.20;99.90
19552;DHT22;9921;47.186;9.778;2023-02-15T03:35:31;-0.30;99.90
19552;DHT22;9921;47.186;9.778;2023-02-15T03:38:01;-0.40;99.90
19552;DHT22;9921;47.186;9.778;2023-02-15T03:40:30;-0.40;99.90
19552;DHT22;9921;47.186;9.778;2023-02-15T03:43:21;-0.40;99.90
19552;DHT22;9921;47.186;9.778;2023-02-15T03:45:54;-0.70;99.90
19552;DHT22;9921;47.186;9.778;2023-02-15T03:48:25;-0.70;99.90
19552;DHT22;9921;47.186;9.778;2023-02-15T03:50:56;-0.80;99.90
19552;DHT22;9921;47.186;9.778;2023-02-15T03:53:42;-0.70;99.90
19552;DHT22;9921;47.186;9.778;2023-02-15T03:56:09;-0.60;99.90
19552;DHT22;9921;47.186;9.778;2023-02-15T03:58:36;-0.60;99.90
19552;DHT22;9921;47.186;9.778;2023-02-15T04:01:26;-0.50;99.90
19552;DHT22;9921;47.186;9.778;2023-02-15T04:04:14;-0.50;99.90
19552;DHT22;9921;47.186;9.778;2023-02-15T04:06:45;-0.60;99.90
19552;DHT22;9921;47.186;9.778;2023-02-15T04:09:12;-0.50;99.90
19552;DHT22;9921;47.186;9.778;2023-02-15T04:11:56;-0.50;99.90
19552;DHT22;9921;47.186;9.778;2023-02-15T04:14:23;-0.50;99.90
19552;DHT22;9921;47.186;9.778;2023-02-15T04:17:08;-0.40;99.90
19552;DHT22;9921;47.186;9.778;2023-02-15T04:19:35;-0.30;99.90
19552;DHT22;9921;47.186;9.778;2023-02-15T04:22:20;-0.30;99.90
19552;DHT22;9921;47.186;9.778;2023-02-15T04:25:05;-0.30;99.90
19552;DHT22;9921;47.186;9.778;2023-02-15T04:27:41;-0.40;99.90
19552;DHT22;9921;47.186;9.778;2023-02-15T04:30:10;-0.40;99.90
19552;DHT22;9921;47.186;9.778;2023-02-15T04:32:37;-0.40;99.90
19552;DHT22;9921;47.186;9.778;2023-02-15T04:35:05;-0.50;99.90
19552;DHT22;9921;47.186;9.778;2023-02-15T04:37:34;-0.50;99.90
19552;DHT22;9921;47.186;9.778;2023-02-15T04:40:00;-0.40;99.90
19552;DHT22;9921;47.186;9.778;2023-02-15T04:42:28;-0.50;99.90
19552;DHT22;9921;47.186;9.778;2023-02-15T04:44:55;-0.60;99.90
19552;DHT22;9921;47.186;9.778;2023-02-15T04:47:21;-0.60;99.90
19552;DHT22;9921;47.186;9.778;2023-02-15T04:49:48;-0.60;99.90
19552;DHT22;9921;47.186;9.778;2023-02-15T04:52:16;-0.60;99.90
19552;DHT22;9921;47.186;9.778;2023-02-15T04:54:44;-0.70;99.90
19552;DHT22;9921;47.186;9.778;2023-02-15T04:57:11;-0.60;99.90
19552;DHT22;9921;47.186;9.778;2023-02-15T04:59:38;-0.70;99.90
19552;DHT22;9921;47.186;9.778;2023-02-15T05:02:05;-0.90;99.90
19552;DHT22;9921;47.186;9.778;2023-02-15T05:04:32;-1.00;99.90
19552;DHT22;9921;47.186;9.778;2023-02-15T05:06:59;-1.00;99.90
19552;DHT22;9921;47.186;9.778;2023-02-15T05:09:26;-0.90;99.90
19552;DHT22;9921;47.186;9.778;2023-02-15T05:11:54;-0.90;99.90
19552;DHT22;9921;47.186;9.778;2023-02-15T05:14:21;-0.90;99.90
19552;DHT22;9921;47.186;9.778;2023-02-15T05:16:48;-0.90;99.90
19552;DHT22;9921;47.186;9.778;2023-02-15T05:19:15;-0.80;99.90
19552;DHT22;9921;47.186;9.778;2023-02-15T05:21:41;-0.80;99.90
19552;DHT22;9921;47.186;9.778;2023-02-15T05:24:08;-1.10;99.90
19552;DHT22;9921;47.186;9.778;2023-02-15T05:26:49;-1.10;99.90
19552;DHT22;9921;47.186;9.778;2023-02-15T05:29:34;-1.20;99.90
19552;DHT22;9921;47.186;9.778;2023-02-15T05:32:01;-1.10;99.90
19552;DHT22;9921;47.186;9.778;2023-02-15T05:34:29;-1.10;99.90
19552;DHT22;9921;47.186;9.778;2023-02-15T05:36:56;-1.10;99.90
19552;DHT22;9921;47.186;9.778;2023-02-15T05:39:23;-1.00;99.90
19552;DHT22;9921;47.186;9.778;2023-02-15T05:41:50;-1.00;99.90
19552;DHT22;9921;47.186;9.778;2023-02-15T05:44:17;-0.90;99.90
19552;DHT22;9921;47.186;9.778;2023-02-15T05:46:45;-0.90;99.90
19552;DHT22;9921;47.186;9.778;2023-02-15T05:49:12;-0.90;99.90
19552;DHT22;9921;47.186;9.778;2023-02-15T05:51:39;-0.80;99.90
19552;DHT22;9921;47.186;9.778;2023-02-15T05:54:06;-0.80;99.90
19552;DHT22;9921;47.186;9.778;2023-02-15T05:56:32;-0.70;99.90
19552;DHT22;9921;47.186;9.778;2023-02-15T05:58:59;-0.70;99.90
19552;DHT22;9921;47.186;9.778;2023-02-15T06:01:26;-0.70;99.90
19552;DHT22;9921;47.186;9.778;2023-02-15T06:03:54;-0.80;99.90
19552;DHT22;9921;47.186;9.778;2023-02-15T06:06:21;-0.70;99.90
19552;DHT22;9921;47.186;9.778;2023-02-15T06:08:48;-0.70;99.90
19552;DHT22;9921;47.186;9.778;2023-02-15T06:11:15;-0.70;99.90
19552;DHT22;9921;47.186;9.778;2023-02-15T06:13:42;-1.00;99.90
19552;DHT22;9921;47.186;9.778;2023-02-15T06:16:09;-1.20;99.90
19552;DHT22;9921;47.186;9.778;2023-02-15T06:18:36;-1.20;99.90
19552;DHT22;9921;47.186;9.778;2023-02-15T06:21:04;-1.10;99.90
19552;DHT22;9921;47.186;9.778;2023-02-15T06:23:31;-1.00;99.90
19552;DHT22;9921;47.186;9.778;2023-02-15T06:25:57;-0.80;99.90
19552;DHT22;9921;47.186;9.778;2023-02-15T06:28:24;-0.90;99.90
19552;DHT22;9921;47.186;9.778;2023-02-15T06:30:52;-0.90;99.90
19552;DHT22;9921;47.186;9.778;2023-02-15T06:33:18;-0.90;99.90
19552;DHT22;9921;47.186;9.778;2023-02-15T06:35:45;-0.90;99.90
19552;DHT22;9921;47.186;9.778;2023-02-15T06:38:14;-0.90;99.90
19552;DHT22;9921;47.186;9.778;2023-02-15T06:40:41;-0.80;99.90
19552;DHT22;9921;47.186;9.778;2023-02-15T06:43:08;-0.90;99.90
19552;DHT22;9921;47.186;9.778;2023-02-15T06:45:34;-0.90;99.90
19552;DHT22;9921;47.186;9.778;2023-02-15T06:48:01;-0.90;99.90
19552;DHT22;9921;47.186;9.778;2023-02-15T06:50:28;-0.80;99.90
19552;DHT22;9921;47.186;9.778;2023-02-15T06:52:56;-0.80;99.90
19552;DHT22;9921;47.186;9.778;2023-02-15T06:55:25;-0.80;99.90
19552;DHT22;9921;47.186;9.778;2023-02-15T06:57:52;-0.70;99.90
19552;DHT22;9921;47.186;9.778;2023-02-15T07:00:19;-0.80;99.90
19552;DHT22;9921;47.186;9.778;2023-02-15T07:02:47;-0.80;99.90
19552;DHT22;9921;47.186;9.778;2023-02-15T07:05:14;-0.90;99.90
19552;DHT22;9921;47.186;9.778;2023-02-15T07:07:41;-1.00;99.90
19552;DHT22;9921;47.186;9.778;2023-02-15T07:10:08;-0.90;99.90
19552;DHT22;9921;47.186;9.778;2023-02-15T07:12:36;-1.10;99.90
19552;DHT22;9921;47.186;9.778;2023-02-15T07:15:10;-1.10;99.90
19552;DHT22;9921;47.186;9.778;2023-02-15T07:17:37;-0.90;99.90
19552;DHT22;9921;47.186;9.778;2023-02-15T07:20:06;-0.90;99.90
19552;DHT22;9921;47.186;9.778;2023-02-15T07:22:35;-0.80;99.90
19552;DHT22;9921;47.186;9.778;2023-02-15T07:25:02;-0.90;99.90
19552;DHT22;9921;47.186;9.778;2023-02-15T07:27:30;-1.10;99.90
19552;DHT22;9921;47.186;9.778;2023-02-15T07:29:58;-1.30;99.90
19552;DHT22;9921;47.186;9.778;2023-02-15T07:32:28;-1.30;99.90
19552;DHT22;9921;47.186;9.778;2023-02-15T07:34:55;-1.20;99.90
19552;DHT22;9921;47.186;9.778;2023-02-15T07:37:22;-1.10;99.90
19552;DHT22;9921;47.186;9.778;2023-02-15T07:39:49;-1.10;99.90
19552;DHT22;9921;47.186;9.778;2023-02-15T07:42:16;-1.10;99.90
19552;DHT22;9921;47.186;9.778;2023-02-15T07:44:43;-0.90;99.90
19552;DHT22;9921;47.186;9.778;2023-02-15T07:47:11;-0.80;99.90
19552;DHT22;9921;47.186;9.778;2023-02-15T07:49:38;-0.80;99.90
19552;DHT22;9921;47.186;9.778;2023-02-15T07:52:05;-0.60;99.90
19552;DHT22;9921;47.186;9.778;2023-02-15T07:54:32;-0.40;99.90
19552;DHT22;9921;47.186;9.778;2023-02-15T07:57:00;-0.30;99.90
19552;DHT22;9921;47.186;9.778;2023-02-15T07:59:27;0.00;99.90
19552;DHT22;9921;47.186;9.778;2023-02-15T08:01:54;0.20;99.90
19552;DHT22;9921;47.186;9.778;2023-02-15T08:04:23;0.40;99.90
19552;DHT22;9921;47.186;9.778;2023-02-15T08:06:52;0.60;99.90
19552;DHT22;9921;47.186;9.778;2023-02-15T08:09:19;0.90;99.90
19552;DHT22;9921;47.186;9.778;2023-02-15T08:11:47;1.00;99.90
19552;DHT22;9921;47.186;9.778;2023-02-15T08:14:15;0.90;99.90
19552;DHT22;9921;47.186;9.778;2023-02-15T08:16:44;1.10;99.90
19552;DHT22;9921;47.186;9.778;2023-02-15T08:19:15;1.20;99.90
19552;DHT22;9921;47.186;9.778;2023-02-15T08:21:45;1.60;99.90
19552;DHT22;9921;47.186;9.778;2023-02-15T08:24:13;2.00;99.90
19552;DHT22;9921;47.186;9.778;2023-02-15T08:26:41;2.30;99.90
19552;DHT22;9921;47.186;9.778;2023-02-15T08:29:10;2.40;99.90
19552;DHT22;9921;47.186;9.778;2023-02-15T08:31:37;2.40;99.90
19552;DHT22;9921;47.186;9.778;2023-02-15T08:34:06;2.50;99.90
19552;DHT22;9921;47.186;9.778;2023-02-15T08:36:33;2.60;99.90
19552;DHT22;9921;47.186;9.778;2023-02-15T08:39:03;2.70;99.90
19552;DHT22;9921;47.186;9.778;2023-02-15T08:41:32;2.80;99.90
19552;DHT22;9921;47.186;9.778;2023-02-15T08:44:00;3.00;99.90
19552;DHT22;9921;47.186;9.778;2023-02-15T08:46:30;3.50;99.90
19552;DHT22;9921;47.186;9.778;2023-02-15T08:48:58;4.10;99.90
19552;DHT22;9921;47.186;9.778;2023-02-15T08:51:26;4.40;99.90
19552;DHT22;9921;47.186;9.778;2023-02-15T08:53:55;4.30;99.90
19552;DHT22;9921;47.186;9.778;2023-02-15T08:56:26;4.10;99.90
19552;DHT22;9921;47.186;9.778;2023-02-15T08:58:53;4.20;99.90
19552;DHT22;9921;47.186;9.778;2023-02-15T09:01:22;4.30;99.90
19552;DHT22;9921;47.186;9.778;2023-02-15T09:03:50;4.50;99.90
19552;DHT22;9921;47.186;9.778;2023-02-15T09:06:20;4.60;99.90
19552;DHT22;9921;47.186;9.778;2023-02-15T09:08:47;4.60;99.90
19552;DHT22;9921;47.186;9.778;2023-02-15T09:11:16;4.50;99.90
19552;DHT22;9921;47.186;9.778;2023-02-15T09:13:49;4.60;99.90
19552;DHT22;9921;47.186;9.778;2023-02-15T09:16:17;4.80;99.90
19552;DHT22;9921;47.186;9.778;2023-02-15T09:18:45;5.10;99.90
19552;DHT22;9921;47.186;9.778;2023-02-15T09:21:14;5.40;99.90
19552;DHT22;9921;47.186;9.778;2023-02-15T09:23:42;5.90;99.90
19552;DHT22;9921;47.186;9.778;2023-02-15T09:26:11;6.10;99.90
19552;DHT22;9921;47.186;9.778;2023-02-15T09:28:39;5.90;99.90
19552;DHT22;9921;47.186;9.778;2023-02-15T09:31:13;5.70;99.90
19552;DHT22;9921;47.186;9.778;2023-02-15T09:33:41;5.40;99.90
19552;DHT22;9921;47.186;9.778;2023-02-15T09:36:15;5.50;99.90
19552;DHT22;9921;47.186;9.778;2023-02-15T09:38:42;5.50;99.90
19552;DHT22;9921;47.186;9.778;2023-02-15T09:41:19;5.80;99.90
19552;DHT22;9921;47.186;9.778;2023-02-15T09:43:54;6.20;99.90
19552;DHT22;9921;47.186;9.778;2023-02-15T09:46:38;6.30;99.90
19552;DHT22;9921;47.186;9.778;2023-02-15T09:49:12;6.30;99.90
19552;DHT22;9921;47.186;9.778;2023-02-15T09:51:56;6.50;99.90
19552;DHT22;9921;47.186;9.778;2023-02-15T09:54:37;6.90;99.90
19552;DHT22;9921;47.186;9.778;2023-02-15T09:57:10;7.30;99.90
19552;DHT22;9921;47.186;9.778;2023-02-15T09:59:45;7.90;99.90
19552;DHT22;9921;47.186;9.778;2023-02-15T10:02:31;8.40;99.90
19552;DHT22;9921;47.186;9.778;2023-02-15T10:05:11;8.90;99.90
19552;DHT22;9921;47.186;9.778;2023-02-15T10:08:10;9.60;99.90
19552;DHT22;9921;47.186;9.778;2023-02-15T10:10:46;10.60;99.90
19552;DHT22;9921;47.186;9.778;2023-02-15T10:13:28;11.60;99.90
19552;DHT22;9921;47.186;9.778;2023-02-15T10:16:09;12.60;99.90
19552;DHT22;9921;47.186;9.778;2023-02-15T10:18:53;14.10;99.90
19552;DHT22;9921;47.186;9.778;2023-02-15T10:21:38;15.60;99.90
19552;DHT22;9921;47.186;9.778;2023-02-15T10:24:23;16.30;99.90
19552;DHT22;9921;47.186;9.778;2023-02-15T10:26:55;16.90;99.90
19552;DHT22;9921;47.186;9.778;2023-02-15T10:29:32;17.50;99.90
19552;DHT22;9921;47.186;9.778;2023-02-15T10:32:09;18.60;96.50
19552;DHT22;9921;47.186;9.778;2023-02-15T10:34:48;18.60;94.80
19552;DHT22;9921;47.186;9.778;2023-02-15T10:37:32;18.10;93.10
19552;DHT22;9921;47.186;9.778;2023-02-15T10:40:08;18.70;92.80
19552;DHT22;9921;47.186;9.778;2023-02-15T10:42:48;19.50;91.20
19552;DHT22;9921;47.186;9.778;2023-02-15T10:45:25;20.40;87.80
19552;DHT22;9921;47.186;9.778;2023-02-15T10:48:10;21.70;82.50
19552;DHT22;9921;47.186;9.778;2023-02-15T10:50:47;21.70;79.50
19552;DHT22;9921;47.186;9.778;2023-02-15T10:56:20;20.50;75.20
19552;DHT22;9921;47.186;9.778;2023-02-15T10:59:03;19.50;74.50
19552;DHT22;9921;47.186;9.778;2023-02-15T11:01:37;19.50;75.30
19552;DHT22;9921;47.186;9.778;2023-02-15T11:04:22;19.40;76.40
19552;DHT22;9921;47.186;9.778;2023-02-15T11:06:57;19.80;75.70
19552;DHT22;9921;47.186;9.778;2023-02-15T11:09:32;20.80;74.50
19552;DHT22;9921;47.186;9.778;2023-02-15T11:12:01;22.70;71.00
19552;DHT22;9921;47.186;9.778;2023-02-15T11:14:35;24.40;67.80
19552;DHT22;9921;47.186;9.778;2023-02-15T11:17:07;26.20;63.10
19552;DHT22;9921;47.186;9.778;2023-02-15T11:19:38;26.30;61.00
19552;DHT22;9921;47.186;9.778;2023-02-15T11:22:10;24.70;60.10
19552;DHT22;9921;47.186;9.778;2023-02-15T11:24:41;23.20;60.80
19552;DHT22;9921;47.186;9.778;2023-02-15T11:27:18;21.90;63.10
19552;DHT22;9921;47.186;9.778;2023-02-15T11:29:53;22.10;63.50
19552;DHT22;9921;47.186;9.778;2023-02-15T11:32:24;22.10;63.70
19552;DHT22;9921;47.186;9.778;2023-02-15T11:34:55;24.10;61.50
19552;DHT22;9921;47.186;9.778;2023-02-15T11:37:30;25.30;57.90
19552;DHT22;9921;47.186;9.778;2023-02-15T11:39:57;26.00;56.40
19552;DHT22;9921;47.186;9.778;2023-02-15T11:42:27;26.90;55.00
19552;DHT22;9921;47.186;9.778;2023-02-15T11:45:00;27.10;53.30
19552;DHT22;9921;47.186;9.778;2023-02-15T11:47:28;26.70;52.50
19552;DHT22;9921;47.186;9.778;2023-02-15T11:49:56;27.50;53.00
19552;DHT22;9921;47.186;9.778;2023-02-15T11:52:25;28.00;52.10
19552;DHT22;9921;47.186;9.778;2023-02-15T11:54:52;29.50;49.90
19552;DHT22;9921;47.186;9.778;2023-02-15T11:57:23;31.20;47.70
19552;DHT22;9921;47.186;9.778;2023-02-15T11:59:55;32.40;45.30
19552;DHT22;9921;47.186;9.778;2023-02-15T12:02:25;32.40;44.20
19552;DHT22;9921;47.186;9.778;2023-02-15T12:04:58;33.30;41.90
19552;DHT22;9921;47.186;9.778;2023-02-15T12:07:31;33.80;40.60
19552;DHT22;9921;47.186;9.778;2023-02-15T12:10:03;34.50;39.20
19552;DHT22;9921;47.186;9.778;2023-02-15T12:12:34;34.60;37.70
19552;DHT22;9921;47.186;9.778;2023-02-15T12:15:02;34.80;36.60
19552;DHT22;9921;47.186;9.778;2023-02-15T12:17:32;35.30;35.70
19552;DHT22;9921;47.186;9.778;2023-02-15T12:20:02;35.50;35.20
19552;DHT22;9921;47.186;9.778;2023-02-15T12:22:33;35.20;34.70
19552;DHT22;9921;47.186;9.778;2023-02-15T12:25:11;35.10;34.40
19552;DHT22;9921;47.186;9.778;2023-02-15T12:27:47;34.90;34.70
19552;DHT22;9921;47.186;9.778;2023-02-15T12:30:19;35.30;33.80
19552;DHT22;9921;47.186;9.778;2023-02-15T12:32:49;35.70;33.10
19552;DHT22;9921;47.186;9.778;2023-02-15T12:35:25;35.80;33.20
19552;DHT22;9921;47.186;9.778;2023-02-15T12:37:56;35.90;32.10
19552;DHT22;9921;47.186;9.778;2023-02-15T12:42:53;36.10;31.90
19552;DHT22;9921;47.186;9.778;2023-02-15T12:45:24;36.50;30.90
19552;DHT22;9921;47.186;9.778;2023-02-15T12:48:08;36.50;31.60
19552;DHT22;9921;47.186;9.778;2023-02-15T12:50:38;36.50;31.00
19552;DHT22;9921;47.186;9.778;2023-02-15T12:53:14;36.50;31.20
19552;DHT22;9921;47.186;9.778;2023-02-15T12:55:50;35.80;30.30
19552;DHT22;9921;47.186;9.778;2023-02-15T12:58:19;34.10;29.70
19552;DHT22;9921;47.186;9.778;2023-02-15T13:00:47;32.20;31.80
19552;DHT22;9921;47.186;9.778;2023-02-15T13:03:18;32.80;32.20
19552;DHT22;9921;47.186;9.778;2023-02-15T13:05:46;33.60;30.40
19552;DHT22;9921;47.186;9.778;2023-02-15T13:08:18;34.30;30.30
19552;DHT22;9921;47.186;9.778;2023-02-15T13:10:54;35.10;29.30
19552;DHT22;9921;47.186;9.778;2023-02-15T13:13:24;35.80;29.40
19552;DHT22;9921;47.186;9.778;2023-02-15T13:15:54;36.10;28.80
19552;DHT22;9921;47.186;9.778;2023-02-15T13:18:29;35.90;29.10
19552;DHT22;9921;47.186;9.778;2023-02-15T13:21:09;36.20;29.00
19552;DHT22;9921;47.186;9.778;2023-02-15T13:23:39;36.40;28.70
19552;DHT22;9921;47.186;9.778;2023-02-15T13:26:13;36.30;29.10
19552;DHT22;9921;47.186;9.778;2023-02-15T13:28:44;36.20;29.20
19552;DHT22;9921;47.186;9.778;2023-02-15T13:31:13;35.20;29.30
19552;DHT22;9921;47.186;9.778;2023-02-15T13:33:43;35.10;29.60
19552;DHT22;9921;47.186;9.778;2023-02-15T13:36:17;35.10;29.70
19552;DHT22;9921;47.186;9.778;2023-02-15T13:38:54;34.80;29.80
19552;DHT22;9921;47.186;9.778;2023-02-15T13:41:29;34.30;30.10
19552;DHT22;9921;47.186;9.778;2023-02-15T13:44:03;34.10;29.30
19552;DHT22;9921;47.186;9.778;2023-02-15T13:46:47;34.00;29.70
19552;DHT22;9921;47.186;9.778;2023-02-15T13:49:25;33.60;29.40
19552;DHT22;9921;47.186;9.778;2023-02-15T13:52:05;33.10;30.00
19552;DHT22;9921;47.186;9.778;2023-02-15T13:54:44;33.00;30.60
19552;DHT22;9921;47.186;9.778;2023-02-15T13:57:49;32.90;30.80
19552;DHT22;9921;47.186;9.778;2023-02-15T14:00:26;32.60;31.20
19552;DHT22;9921;47.186;9.778;2023-02-15T14:03:16;32.40;31.30
19552;DHT22;9921;47.186;9.778;2023-02-15T14:05:53;32.60;31.30
19552;DHT22;9921;47.186;9.778;2023-02-15T14:08:36;32.30;30.40
19552;DHT22;9921;47.186;9.778;2023-02-15T14:11:16;32.00;30.80
19552;DHT22;9921;47.186;9.778;2023-02-15T14:14:05;32.00;31.60
19552;DHT22;9921;47.186;9.778;2023-02-15T14:16:44;31.90;31.30
19552;DHT22;9921;47.186;9.778;2023-02-15T14:19:18;31.50;31.80
19552;DHT22;9921;47.186;9.778;2023-02-15T14:21:50;31.20;31.60
19552;DHT22;9921;47.186;9.778;2023-02-15T14:24:27;31.00;31.60
19552;DHT22;9921;47.186;9.778;2023-02-15T14:27:03;30.60;32.20
19552;DHT22;9921;47.186;9.778;2023-02-15T14:29:42;30.90;32.00
19552;DHT22;9921;47.186;9.778;2023-02-15T14:32:12;30.90;32.10
19552;DHT22;9921;47.186;9.778;2023-02-15T14:34:46;30.40;33.50
19552;DHT22;9921;47.186;9.778;2023-02-15T14:37:19;30.00;34.00
19552;DHT22;9921;47.186;9.778;2023-02-15T14:39:54;29.40;34.70
19552;DHT22;9921;47.186;9.778;2023-02-15T14:42:45;29.30;34.60
19552;DHT22;9921;47.186;9.778;2023-02-15T14:45:20;29.50;34.90
19552;DHT22;9921;47.186;9.778;2023-02-15T14:47:55;29.50;34.50
19552;DHT22;9921;47.186;9.778;2023-02-15T14:50:40;29.50;34.50
19552;DHT22;9921;47.186;9.778;2023-02-15T14:53:37;29.10;34.50
19552;DHT22;9921;47.186;9.778;2023-02-15T14:56:21;29.00;34.70
19552;DHT22;9921;47.186;9.778;2023-02-15T14:59:14;29.00;35.10
19552;DHT22;9921;47.186;9.778;2023-02-15T15:01:51;29.00;34.80
19552;DHT22;9921;47.186;9.778;2023-02-15T15:04:33;28.70;34.60
19552;DHT22;9921;47.186;9.778;2023-02-15T15:07:08;27.90;34.60
19552;DHT22;9921;47.186;9.778;2023-02-15T15:09:37;27.50;34.90
19552;DHT22;9921;47.186;9.778;2023-02-15T15:14:58;27.10;36.10
19552;DHT22;9921;47.186;9.778;2023-02-15T15:17:54;26.60;36.80
19552;DHT22;9921;47.186;9.778;2023-02-15T15:20:43;25.50;37.20
19552;DHT22;9921;47.186;9.778;2023-02-15T15:23:39;24.60;37.60
19552;DHT22;9921;47.186;9.778;2023-02-15T15:26:31;23.70;38.80
19552;DHT22;9921;47.186;9.778;2023-02-15T15:29:03;22.80;39.90
19552;DHT22;9921;47.186;9.778;2023-02-15T15:31:46;22.00;40.80
19552;DHT22;9921;47.186;9.778;2023-02-15T15:34:45;20.80;42.60
19552;DHT22;9921;47.186;9.778;2023-02-15T15:37:41;19.60;44.80
19552;DHT22;9921;47.186;9.778;2023-02-15T15:40:41;18.20;47.60
19552;DHT22;9921;47.186;9.778;2023-02-15T15:46:17;16.60;51.90
19552;DHT22;9921;47.186;9.778;2023-02-15T15:48:51;15.80;53.60
19552;DHT22;9921;47.186;9.778;2023-02-15T15:51:20;15.10;55.50
19552;DHT22;9921;47.186;9.778;2023-02-15T15:53:53;14.70;56.50
19552;DHT22;9921;47.186;9.778;2023-02-15T15:56:21;14.30;57.70
19552;DHT22;9921;47.186;9.778;2023-02-15T15:58:50;14.10;58.60
19552;DHT22;9921;47.186;9.778;2023-02-15T16:01:26;13.60;59.80
19552;DHT22;9921;47.186;9.778;2023-02-15T16:03:56;12.40;65.10
19552;DHT22;9921;47.186;9.778;2023-02-15T16:06:29;12.30;65.70
19552;DHT22;9921;47.186;9.778;2023-02-15T16:08:56;12.20;66.50
19552;DHT22;9921;47.186;9.778;2023-02-15T16:11:25;12.20;67.00
19552;DHT22;9921;47.186;9.778;2023-02-15T16:13:53;12.20;67.20
19552;DHT22;9921;47.186;9.778;2023-02-15T16:16:22;12.20;67.80
19552;DHT22;9921;47.186;9.778;2023-02-15T16:18:49;12.10;68.50
19552;DHT22;9921;47.186;9.778;2023-02-15T16:21:21;11.50;70.50
19552;DHT22;9921;47.186;9.778;2023-02-15T16:24:09;11.50;71.50
19552;DHT22;9921;47.186;9.778;2023-02-15T16:29:34;11.40;72.80
19552;DHT22;9921;47.186;9.778;2023-02-15T16:32:02;11.50;72.60
19552;DHT22;9921;47.186;9.778;2023-02-15T16:34:30;11.40;72.70
19552;DHT22;9921;47.186;9.778;2023-02-15T16:37:15;11.40;73.20
19552;DHT22;9921;47.186;9.778;2023-02-15T16:39:43;11.10;74.60
19552;DHT22;9921;47.186;9.778;2023-02-15T16:42:11;11.00;75.50
19552;DHT22;9921;47.186;9.778;2023-02-15T16:44:40;10.70;76.70